sensor_id;sensor_type;location;lat;lon;timestamp;P1;durP1;ratioP1;P2;durP2;ratioP2
50649;SDS011;36621;60.058;30.346;2023-02-28T00:00:08;15.25;;;4.65;;
50649;SDS011;36621;60.058;30.346;2023-02-28T00:07:41;18.75;;;4.90;;
50649;SDS011;36621;60.058;30.346;2023-02-28T00:15:15;24.90;;;4.65;;
50649;SDS011;36621;60.058;30.346;2023-02-28T00:22:48;5.90;;;3.75;;
50649;SDS011;36621;60.058;30.346;2023-02-28T00:30:22;6.70;;;3.65;;
50649;SDS011;36621;60.058;30.346;2023-02-28T00:37:55;5.28;;;2.95;;
50649;SDS011;36621;60.058;30.346;2023-02-28T00:45:27;5.40;;;2.20;;
50649;SDS011;36621;60.058;30.346;2023-02-28T00:52:59;3.88;;;2.30;;
50649;SDS011;36621;60.058;30.346;2023-02-28T01:00:32;5.03;;;2.20;;
50649;SDS011;36621;60.058;30.346;2023-02-28T01:08:04;3.22;;;1.70;;
50649;SDS011;36621;60.058;30.346;2023-02-28T01:15:37;3.10;;;1.63;;
50649;SDS011;36621;60.058;30.346;2023-02-28T01:23:12;2.38;;;1.48;;
50649;SDS011;36621;60.058;30.346;2023-02-28T01:30:47;3.67;;;1.58;;
50649;SDS011;36621;60.058;30.346;2023-02-28T01:38:19;4.55;;;1.58;;
50649;SDS011;36621;60.058;30.346;2023-02-28T01:45:52;3.88;;;1.75;;
50649;SDS011;36621;60.058;30.346;2023-02-28T01:53:26;2.20;;;1.30;;
50649;SDS011;36621;60.058;30.346;2023-02-28T02:01:03;5.63;;;1.83;;
50649;SDS011;36621;60.058;30.346;2023-02-28T02:08:35;2.38;;;1.45;;
50649;SDS011;36621;60.058;30.346;2023-02-28T02:16:15;3.38;;;1.60;;
50649;SDS011;36621;60.058;30.346;2023-02-28T02:24:11;2.50;;;1.45;;
50649;SDS011;36621;60.058;30.346;2023-02-28T02:32:16;4.88;;;1.83;;
50649;SDS011;36621;60.058;30.346;2023-02-28T02:40:02;2.47;;;1.75;;
50649;SDS011;36621;60.058;30.346;2023-02-28T02:47:39;3.25;;;1.60;;
50649;SDS011;36621;60.058;30.346;2023-02-28T02:55:13;3.13;;;1.23;;
50649;SDS011;36621;60.058;30.346;2023-02-28T03:02:46;3.80;;;1.48;;
50649;SDS011;36621;60.058;30.346;2023-02-28T03:18:22;1.92;;;1.13;;
50649;SDS011;36621;60.058;30.346;2023-02-28T03:26:04;1.98;;;1.20;;
50649;SDS011;36621;60.058;30.346;2023-02-28T03:33:41;2.25;;;1.20;;
50649;SDS011;36621;60.058;30.346;2023-02-28T03:49:05;3.08;;;1.20;;
50649;SDS011;36621;60.058;30.346;2023-02-28T03:56:45;3.72;;;1.20;;
50649;SDS011;36621;60.058;30.346;2023-02-28T04:04:24;1.88;;;1.25;;
50649;SDS011;36621;60.058;30.346;2023-02-28T04:11:57;2.85;;;1.05;;
50649;SDS011;36621;60.058;30.346;2023-02-28T04:19:30;2.88;;;0.80;;
50649;SDS011;36621;60.058;30.346;2023-02-28T04:27:03;3.97;;;1.40;;
50649;SDS011;36621;60.058;30.346;2023-02-28T04:34:35;1.92;;;1.05;;
50649;SDS011;36621;60.058;30.346;2023-02-28T04:42:08;2.28;;;1.30;;
50649;SDS011;36621;60.058;30.346;2023-02-28T04:49:41;3.05;;;1.20;;
50649;SDS011;36621;60.058;30.346;2023-02-28T04:57:14;3.75;;;1.10;;
50649;SDS011;36621;60.058;30.346;2023-02-28T05:04:46;2.10;;;0.90;;
50649;SDS011;36621;60.058;30.346;2023-02-28T05:12:18;2.38;;;1.00;;
50649;SDS011;36621;60.058;30.346;2023-02-28T05:19:51;4.25;;;2.83;;
50649;SDS011;36621;60.058;30.346;2023-02-28T05:27:25;2.60;;;1.40;;
50649;SDS011;36621;60.058;30.346;2023-02-28T05:34:59;2.60;;;1.10;;
50649;SDS011;36621;60.058;30.346;2023-02-28T05:42:31;2.25;;;1.30;;
50649;SDS011;36621;60.058;30.346;2023-02-28T05:50:06;2.30;;;1.52;;
50649;SDS011;36621;60.058;30.346;2023-02-28T06:13:57;5.45;;;2.17;;
50649;SDS011;36621;60.058;30.346;2023-02-28T06:21:30;5.72;;;1.60;;
50649;SDS011;36621;60.058;30.346;2023-02-28T06:29:04;7.63;;;1.85;;
50649;SDS011;36621;60.058;30.346;2023-02-28T06:36:36;5.28;;;1.33;;
50649;SDS011;36621;60.058;30.346;2023-02-28T06:44:11;10.50;;;2.10;;
50649;SDS011;36621;60.058;30.346;2023-02-28T06:51:45;8.82;;;1.95;;
50649;SDS011;36621;60.058;30.346;2023-02-28T06:59:20;9.65;;;1.73;;
50649;SDS011;36621;60.058;30.346;2023-02-28T15:07:09;5.85;;;1.00;;
50649;SDS011;36621;60.058;30.346;2023-02-28T15:14:44;5.50;;;1.52;;
50649;SDS011;36621;60.058;30.346;2023-02-28T15:22:19;2.45;;;1.05;;
50649;SDS011;36621;60.058;30.346;2023-02-28T15:30:00;7.55;;;1.88;;
50649;SDS011;36621;60.058;30.346;2023-02-28T15:37:39;8.50;;;1.80;;
50649;SDS011;36621;60.058;30.346;2023-02-28T15:54:51;4.97;;;2.45;;
50649;SDS011;36621;60.058;30.346;2023-02-28T16:02:29;7.18;;;2.60;;
50649;SDS011;36621;60.058;30.346;2023-02-28T16:10:03;8.73;;;3.72;;
50649;SDS011;36621;60.058;30.346;2023-02-28T16:17:38;7.07;;;2.70;;
50649;SDS011;36621;60.058;30.346;2023-02-28T16:25:13;7.05;;;2.63;;
50649;SDS011;36621;60.058;30.346;2023-02-28T16:32:47;14.18;;;3.15;;
50649;SDS011;36621;60.058;30.346;2023-02-28T16:40:21;6.50;;;2.30;;
50649;SDS011;36621;60.058;30.346;2023-02-28T16:47:57;8.88;;;2.20;;
50649;SDS011;36621;60.058;30.346;2023-02-28T16:55:31;6.80;;;2.10;;
50649;SDS011;36621;60.058;30.346;2023-02-28T17:03:04;8.18;;;3.20;;
50649;SDS011;36621;60.058;30.346;2023-02-28T17:10:38;11.68;;;3.47;;
50649;SDS011;36621;60.058;30.346;2023-02-28T17:18:13;6.28;;;2.58;;
50649;SDS011;36621;60.058;30.346;2023-02-28T17:33:56;6.90;;;2.30;;
50649;SDS011;36621;60.058;30.346;2023-02-28T17:41:31;6.43;;;2.75;;
50649;SDS011;36621;60.058;30.346;2023-02-28T17:49:05;5.25;;;1.90;;
50649;SDS011;36621;60.058;30.346;2023-02-28T17:56:42;5.88;;;2.28;;
50649;SDS011;36621;60.058;30.346;2023-02-28T18:04:15;7.85;;;2.70;;
50649;SDS011;36621;60.058;30.346;2023-02-28T18:11:50;5.82;;;2.15;;
50649;SDS011;36621;60.058;30.346;2023-02-28T18:19:24;6.25;;;2.17;;
50649;SDS011;36621;60.058;30.346;2023-02-28T18:26:58;5.25;;;2.15;;
50649;SDS011;36621;60.058;30.346;2023-02-28T18:34:31;8.20;;;1.95;;
50649;SDS011;36621;60.058;30.346;2023-02-28T18:42:04;5.57;;;1.98;;
50649;SDS011;36621;60.058;30.346;2023-02-28T18:49:38;4.63;;;2.17;;
50649;SDS011;36621;60.058;30.346;2023-02-28T18:57:18;5.15;;;2.03;;
